Time;durP1;ratioP1;P1;durP2;ratioP2;P2;SDS_P1;SDS_P2;PMS_P1;PMS_P2;Temp;Humidity;BMP_temperature;BMP_pressure;BME280_temperature;BME280_humidity;BME280_pressure;Samples;Min_cycle;Max_cycle;Signal;HPM_P1;HPM_P2
2022/08/17 00:00:59;;;;;;;1.08;0.80;;;15.40;99.90;;;;;;5024421;28;20198;-75
2022/08/17 00:03:32;;;;;;;2.72;1.00;;;15.40;99.90;;;;;;5031326;28;20561;-78
2022/08/17 00:06:05;;;;;;;1.25;0.98;;;15.60;99.90;;;;;;5024918;28;20197;-69
2022/08/17 00:08:38;;;;;;;0.90;0.80;;;15.70;99.90;;;;;;5031910;28;20182;-70
2022/08/17 00:11:13;;;;;;;3.33;1.00;;;15.90;99.90;;;;;;5032757;28;20221;-72
2022/08/17 00:13:47;;;;;;;1.20;1.00;;;16.10;99.90;;;;;;5032640;28;20182;-69
2022/08/17 00:16:21;;;;;;;0.93;0.73;;;16.20;99.90;;;;;;5034884;28;20538;-79
2022/08/17 00:18:52;;;;;;;2.88;1.40;;;16.30;99.90;;;;;;5034694;28;20191;-77
2022/08/17 00:21:24;;;;;;;2.95;0.90;;;16.40;99.90;;;;;;5030358;28;20544;-71
2022/08/17 00:23:55;;;;;;;2.28;1.20;;;16.60;99.90;;;;;;5033677;28;20191;-69
2022/08/17 00:26:29;;;;;;;3.38;1.20;;;16.70;99.90;;;;;;5031587;28;20562;-71
2022/08/17 00:29:00;;;;;;;1.10;0.80;;;16.80;99.90;;;;;;5034366;28;20201;-75
2022/08/17 00:31:30;;;;;;;1.45;0.90;;;16.90;99.90;;;;;;5033682;28;20186;-80
2022/08/17 00:34:01;;;;;;;1.15;0.90;;;17.00;99.90;;;;;;5032821;28;20209;-82
2022/08/17 00:36:32;;;;;;;2.55;0.98;;;17.10;99.90;;;;;;5032710;28;20190;-80
2022/08/17 00:39:03;;;;;;;1.60;0.70;;;17.30;99.90;;;;;;5027695;28;20227;-81
2022/08/17 00:41:35;;;;;;;25.73;15.27;;;17.40;99.90;;;;;;5032832;28;20186;-83
2022/08/17 00:44:08;;;;;;;17.15;11.02;;;17.50;99.90;;;;;;5034082;28;20194;-82
2022/08/17 00:46:41;;;;;;;5.80;3.80;;;17.70;99.90;;;;;;5033985;28;20566;-79
2022/08/17 00:49:13;;;;;;;4.15;2.47;;;17.80;99.90;;;;;;5029263;28;20194;-81
2022/08/17 00:51:47;;;;;;;2.35;1.50;;;17.80;99.90;;;;;;5034225;28;20194;-80
2022/08/17 00:54:21;;;;;;;6.45;2.47;;;17.80;99.90;;;;;;5031885;28;20195;-81
2022/08/17 00:56:56;;;;;;;7.68;1.73;;;17.90;99.90;;;;;;5026222;28;20201;-78
2022/08/17 00:59:31;;;;;;;1.83;1.00;;;18.00;99.90;;;;;;5031048;28;20546;-79
2022/08/17 01:02:02;;;;;;;3.33;1.30;;;18.00;99.90;;;;;;5030912;28;20205;-78
2022/08/17 01:04:34;;;;;;;1.67;0.90;;;18.20;99.90;;;;;;5033281;28;20191;-76
2022/08/17 01:07:05;;;;;;;1.20;0.70;;;18.30;99.90;;;;;;5029060;28;20199;-78
2022/08/17 01:09:36;;;;;;;1.48;0.90;;;18.30;99.90;;;;;;5030339;28;21835;-83
2022/08/17 01:12:10;;;;;;;4.15;0.90;;;18.40;99.90;;;;;;5031257;28;20186;-74
2022/08/17 01:14:42;;;;;;;4.32;1.40;;;18.40;99.90;;;;;;5030002;28;20194;-81
2022/08/17 01:17:13;;;;;;;5.90;1.45;;;18.50;99.90;;;;;;5032848;28;20522;-82
2022/08/17 01:19:45;;;;;;;3.72;1.13;;;18.50;99.90;;;;;;5028607;28;20213;-81
2022/08/17 01:22:23;;;;;;;6.38;1.98;;;18.70;99.90;;;;;;5029060;28;20187;-82
2022/08/17 01:24:58;;;;;;;7.05;1.95;;;18.80;99.90;;;;;;5032893;28;20222;-82
2022/08/17 01:27:29;;;;;;;11.02;3.33;;;18.80;99.90;;;;;;5028458;28;20190;-79
2022/08/17 01:30:04;;;;;;;0.88;0.60;;;18.90;99.90;;;;;;5026909;28;20206;-80
2022/08/17 01:32:35;;;;;;;1.80;1.00;;;18.90;99.90;;;;;;5032763;28;20197;-78
2022/08/17 01:35:08;;;;;;;1.08;0.63;;;19.00;99.90;;;;;;5029786;28;20194;-81
2022/08/17 01:37:42;;;;;;;1.60;0.77;;;19.00;99.90;;;;;;5030181;28;20202;-80
2022/08/17 01:40:22;;;;;;;1.55;0.60;;;19.10;99.90;;;;;;5031181;28;20233;-81
2022/08/17 01:42:57;;;;;;;1.27;0.57;;;19.20;99.90;;;;;;5029449;28;20228;-79
2022/08/17 01:45:32;;;;;;;1.58;0.60;;;19.40;99.90;;;;;;5026699;28;20194;-80
2022/08/17 01:48:03;;;;;;;0.88;0.60;;;19.30;99.90;;;;;;5032337;28;20198;-71
2022/08/17 01:50:38;;;;;;;1.65;0.85;;;19.40;99.90;;;;;;5032000;28;20260;-79
2022/08/17 01:53:14;;;;;;;1.58;0.70;;;19.30;99.90;;;;;;5030401;28;20613;-74
2022/08/17 01:55:50;;;;;;;2.13;0.70;;;19.40;99.90;;;;;;5032167;28;20213;-72
2022/08/17 01:58:21;;;;;;;0.82;0.70;;;19.50;99.90;;;;;;5030614;28;20277;-73
2022/08/17 02:00:55;;;;;;;2.00;0.77;;;19.60;99.90;;;;;;5031687;28;20210;-68
2022/08/17 02:03:27;;;;;;;3.63;0.60;;;19.70;99.90;;;;;;5032417;28;20557;-69
2022/08/17 02:05:58;;;;;;;1.50;0.70;;;19.60;99.90;;;;;;5031041;28;20210;-71
2022/08/17 02:08:34;;;;;;;0.98;0.65;;;19.50;99.90;;;;;;5030395;28;20190;-68
2022/08/17 02:11:06;;;;;;;1.45;0.60;;;19.50;99.90;;;;;;5030869;28;20236;-73
2022/08/17 02:13:37;;;;;;;1.38;0.63;;;19.50;99.90;;;;;;5034558;28;20264;-68
2022/08/17 02:16:07;;;;;;;2.10;0.52;;;19.60;99.90;;;;;;5030146;28;20202;-69
2022/08/17 02:18:38;;;;;;;1.38;0.40;;;19.60;99.90;;;;;;5029846;28;20206;-68
2022/08/17 02:21:09;;;;;;;2.88;0.75;;;19.70;99.90;;;;;;5030924;28;20199;-68
2022/08/17 02:23:44;;;;;;;1.15;0.60;;;19.80;99.90;;;;;;5029006;28;20205;-71
2022/08/17 02:26:15;;;;;;;1.10;0.60;;;19.80;99.90;;;;;;5030416;28;20193;-71
2022/08/17 02:28:46;;;;;;;1.92;0.80;;;19.70;99.90;;;;;;5033965;28;20195;-72
2022/08/17 02:31:17;;;;;;;2.55;0.70;;;19.70;99.90;;;;;;5028896;28;20217;-68
2022/08/17 02:33:48;;;;;;;4.22;0.90;;;19.40;99.90;;;;;;5031563;28;20198;-74
2022/08/17 02:36:18;;;;;;;1.08;0.80;;;19.20;99.90;;;;;;5021664;28;20217;-69
2022/08/17 02:38:51;;;;;;;1.95;0.70;;;19.20;99.90;;;;;;5031168;28;20234;-67
2022/08/17 02:41:22;;;;;;;3.40;0.88;;;19.20;99.90;;;;;;5025145;28;20196;-67
2022/08/17 02:43:52;;;;;;;0.93;0.70;;;19.20;99.90;;;;;;5029144;28;20198;-68
2022/08/17 02:46:23;;;;;;;4.00;0.90;;;19.30;99.90;;;;;;5029817;28;20204;-68
2022/08/17 02:48:54;;;;;;;2.50;0.90;;;19.40;99.90;;;;;;5034262;28;21008;-68
2022/08/17 02:51:25;;;;;;;1.45;0.85;;;19.50;99.90;;;;;;5026146;28;20260;-69
2022/08/17 02:53:58;;;;;;;3.33;0.80;;;19.50;99.90;;;;;;5032298;28;20654;-75
2022/08/17 02:56:29;;;;;;;3.45;0.90;;;19.40;99.90;;;;;;5027755;28;20190;-69
2022/08/17 02:59:00;;;;;;;2.42;1.02;;;19.30;99.90;;;;;;5028281;28;20205;-83
2022/08/17 03:01:30;;;;;;;1.00;0.75;;;19.20;99.90;;;;;;5026760;28;20296;-75
2022/08/17 03:04:01;;;;;;;2.42;0.93;;;19.10;99.90;;;;;;5028949;28;20190;-68
2022/08/17 03:06:32;;;;;;;2.25;0.70;;;19.00;99.90;;;;;;5026967;28;20195;-78
2022/08/17 03:09:05;;;;;;;1.90;0.80;;;19.00;99.90;;;;;;5030325;28;20194;-68
2022/08/17 03:11:36;;;;;;;1.20;0.70;;;19.00;99.90;;;;;;5020167;28;20578;-68
2022/08/17 03:14:07;;;;;;;1.65;0.60;;;18.90;99.90;;;;;;5031879;28;20225;-68
2022/08/17 03:16:37;;;;;;;1.65;0.80;;;18.90;99.90;;;;;;5031707;28;20207;-77
2022/08/17 03:19:08;;;;;;;2.95;0.80;;;18.90;99.90;;;;;;5027413;28;20190;-68
2022/08/17 03:21:39;;;;;;;3.90;0.88;;;18.90;99.90;;;;;;5027851;28;20205;-68
2022/08/17 03:24:13;;;;;;;1.58;0.57;;;19.00;99.90;;;;;;5025237;28;20232;-68
2022/08/17 03:26:44;;;;;;;2.45;0.82;;;18.90;99.90;;;;;;5030619;28;20283;-68
2022/08/17 03:29:17;;;;;;;2.70;0.65;;;18.90;99.90;;;;;;5031331;28;20281;-68
2022/08/17 03:31:49;;;;;;;2.72;0.70;;;19.00;99.90;;;;;;5026151;28;20222;-79
2022/08/17 03:34:20;;;;;;;1.73;0.68;;;19.00;99.90;;;;;;5029128;28;20190;-68
2022/08/17 03:36:51;;;;;;;3.75;0.80;;;18.90;99.90;;;;;;5027916;28;20195;-70
2022/08/17 03:39:23;;;;;;;3.42;0.80;;;18.90;99.90;;;;;;5029296;28;20336;-69
2022/08/17 03:41:54;;;;;;;4.78;0.90;;;18.80;99.90;;;;;;5028499;28;20198;-79
2022/08/17 03:44:25;;;;;;;0.77;0.60;;;18.70;99.90;;;;;;5033045;28;20562;-69
2022/08/17 03:58:04;;;;;;;2.33;0.60;;;18.70;99.90;;;;;;5036081;28;20667;-75
2022/08/17 04:00:37;;;;;;;2.08;0.65;;;18.70;99.90;;;;;;5032838;28;20277;-69
2022/08/17 04:03:08;;;;;;;4.43;1.00;;;18.70;99.90;;;;;;5035858;28;20189;-71
2022/08/17 04:05:39;;;;;;;2.95;0.90;;;18.80;99.90;;;;;;5033135;28;20665;-74
2022/08/17 04:08:10;;;;;;;0.98;0.70;;;18.80;99.90;;;;;;5040963;28;20202;-77
2022/08/17 04:10:43;;;;;;;3.80;0.77;;;18.70;99.90;;;;;;5037368;28;20222;-69
2022/08/17 04:13:14;;;;;;;4.65;0.70;;;18.70;99.90;;;;;;5041765;28;20623;-68
2022/08/17 04:15:47;;;;;;;1.73;0.68;;;18.60;99.90;;;;;;5038714;28;20198;-67
2022/08/17 04:18:18;;;;;;;1.30;0.52;;;18.60;99.90;;;;;;5036696;28;20201;-68
2022/08/17 04:20:49;;;;;;;2.50;0.70;;;18.60;99.90;;;;;;5034166;28;20202;-68
2022/08/17 04:23:21;;;;;;;2.67;0.80;;;18.60;99.90;;;;;;5034576;28;20195;-68
2022/08/17 04:25:53;;;;;;;2.72;0.80;;;18.70;99.90;;;;;;5030585;28;20688;-76
2022/08/17 04:28:24;;;;;;;3.67;1.08;;;18.60;99.90;;;;;;5032333;28;20197;-78
2022/08/17 04:30:55;;;;;;;3.35;0.75;;;18.60;99.90;;;;;;5029573;28;20222;-72
2022/08/17 04:33:28;;;;;;;2.00;0.68;;;18.40;99.90;;;;;;5032926;28;20186;-79
2022/08/17 04:36:01;;;;;;;1.85;0.60;;;18.50;99.90;;;;;;5034478;28;20194;-79
2022/08/17 04:38:34;;;;;;;1.52;0.60;;;18.50;99.90;;;;;;5033316;28;20234;-79
2022/08/17 04:43:57;;;;;;;3.25;0.80;;;18.40;99.90;;;;;;5028326;28;20245;-79
2022/08/17 04:46:31;;;;;;;3.17;0.70;;;18.50;99.90;;;;;;5032607;28;20202;-68
2022/08/17 04:49:03;;;;;;;1.95;0.65;;;18.50;99.90;;;;;;5034091;28;20190;-78
2022/08/17 04:51:37;;;;;;;2.83;0.80;;;18.40;99.90;;;;;;5033608;28;20214;-81
2022/08/17 04:54:10;;;;;;;5.15;1.92;;;18.40;99.90;;;;;;5033722;28;20196;-77
2022/08/17 04:56:42;;;;;;;2.00;0.90;;;18.30;99.90;;;;;;5034001;28;20202;-75
2022/08/17 04:59:14;;;;;;;2.33;0.88;;;18.30;99.90;;;;;;5034038;28;20554;-76
2022/08/17 05:01:46;;;;;;;4.45;0.90;;;18.30;99.90;;;;;;5033541;28;20194;-77
2022/08/17 05:04:19;;;;;;;2.83;0.70;;;18.20;99.90;;;;;;5033930;28;20200;-77
2022/08/17 05:06:50;;;;;;;1.52;0.70;;;18.20;99.90;;;;;;5032878;28;20190;-69
2022/08/17 05:09:21;;;;;;;3.33;0.90;;;18.10;99.90;;;;;;5033947;28;20245;-68
2022/08/17 05:11:53;;;;;;;3.60;0.90;;;18.10;99.90;;;;;;5032913;28;20224;-73
2022/08/17 05:14:24;;;;;;;3.17;0.77;;;18.10;99.90;;;;;;5033441;28;20186;-68
2022/08/17 05:16:55;;;;;;;4.68;0.70;;;18.10;99.90;;;;;;5033035;28;20642;-68
2022/08/17 05:19:26;;;;;;;3.45;0.60;;;18.00;99.90;;;;;;5033551;28;20186;-80
2022/08/17 05:21:56;;;;;;;3.28;0.70;;;18.00;99.90;;;;;;5032459;28;20204;-82
2022/08/17 05:24:27;;;;;;;3.58;0.90;;;18.00;99.90;;;;;;5026224;28;20209;-69
2022/08/17 05:27:00;;;;;;;4.15;0.82;;;18.00;99.90;;;;;;5033361;28;20190;-73
2022/08/17 05:29:30;;;;;;;2.13;0.70;;;17.90;99.90;;;;;;5033230;28;20205;-70
2022/08/17 05:32:08;;;;;;;0.88;0.50;;;17.90;99.90;;;;;;5032122;28;20236;-77
2022/08/17 05:34:39;;;;;;;1.60;0.70;;;17.80;99.90;;;;;;5032625;28;20202;-69
2022/08/17 05:37:10;;;;;;;2.85;0.65;;;17.90;99.90;;;;;;5033281;28;20189;-74
2022/08/17 05:39:40;;;;;;;3.95;0.90;;;17.90;99.90;;;;;;5033335;28;20238;-76
2022/08/17 05:42:13;;;;;;;2.95;0.70;;;17.90;99.90;;;;;;5033166;28;20209;-81
2022/08/17 05:44:44;;;;;;;2.88;0.70;;;17.90;99.90;;;;;;5032507;28;20190;-78
2022/08/17 05:47:15;;;;;;;2.65;0.88;;;17.90;99.90;;;;;;5033101;28;20194;-78
2022/08/17 05:49:45;;;;;;;2.97;0.85;;;17.80;99.90;;;;;;5034370;28;20202;-78
2022/08/17 05:52:33;;;;;;;3.25;0.70;;;17.80;99.90;;;;;;5036289;28;20758;-76
2022/08/17 05:55:14;;;;;;;2.95;0.52;;;17.80;99.90;;;;;;5048718;28;20194;-79
2022/08/17 05:58:07;;;;;;;3.90;0.80;;;17.70;99.90;;;;;;5048825;28;20209;-78
2022/08/17 06:00:49;;;;;;;1.27;0.70;;;17.80;99.90;;;;;;5042226;28;20208;-79
2022/08/17 06:03:33;;;;;;;2.65;0.80;;;17.70;99.90;;;;;;5032935;28;20237;-80
2022/08/17 06:06:25;;;;;;;2.42;1.00;;;17.70;99.90;;;;;;5033762;28;20580;-79
2022/08/17 06:09:06;;;;;;;3.17;1.00;;;17.60;99.90;;;;;;5032126;28;20191;-79
2022/08/17 06:11:46;;;;;;;1.65;0.77;;;17.60;99.90;;;;;;5032454;28;20214;-68
2022/08/17 06:14:37;;;;;;;1.58;0.80;;;17.60;99.90;;;;;;5032279;28;20190;-68
2022/08/17 06:17:12;;;;;;;1.77;0.80;;;17.60;99.90;;;;;;5032848;28;20190;-72
2022/08/17 06:19:47;;;;;;;2.55;0.80;;;17.50;99.90;;;;;;5032520;28;20185;-72
2022/08/17 06:22:21;;;;;;;5.03;1.10;;;17.50;99.90;;;;;;5032511;28;20196;-69
2022/08/17 06:24:57;;;;;;;2.63;0.70;;;17.50;99.90;;;;;;5031602;28;20233;-68
2022/08/17 06:27:33;;;;;;;3.05;0.65;;;17.40;99.90;;;;;;5032771;28;20213;-74
2022/08/17 06:30:10;;;;;;;4.55;0.80;;;17.30;99.90;;;;;;5032108;28;20194;-69
2022/08/17 06:32:43;;;;;;;2.60;0.70;;;17.30;99.90;;;;;;5032170;28;20210;-74
2022/08/17 06:35:15;;;;;;;1.95;0.88;;;17.20;99.90;;;;;;5024831;28;20186;-67
2022/08/17 06:38:09;;;;;;;3.28;0.88;;;17.10;99.90;;;;;;5032696;28;20194;-77
2022/08/17 06:41:00;;;;;;;2.58;0.70;;;17.10;99.90;;;;;;5027731;28;20276;-68
2022/08/17 06:43:44;;;;;;;1.65;0.70;;;17.00;99.90;;;;;;5026406;28;20183;-71
2022/08/17 06:46:23;;;;;;;2.13;0.82;;;17.00;99.90;;;;;;5032255;28;20191;-68
2022/08/17 06:49:06;;;;;;;2.90;0.80;;;16.90;99.90;;;;;;5032153;28;20194;-73
2022/08/17 06:51:42;;;;;;;6.00;0.80;;;16.90;99.90;;;;;;5031953;28;20263;-67
2022/08/17 06:54:19;;;;;;;1.92;0.80;;;16.80;99.90;;;;;;5031908;28;20197;-68
2022/08/17 06:56:54;;;;;;;2.78;1.10;;;16.70;99.90;;;;;;5031719;28;20212;-68
2022/08/17 06:59:32;;;;;;;1.90;0.90;;;16.70;99.90;;;;;;5024582;28;20251;-68
2022/08/17 07:02:10;;;;;;;1.98;0.90;;;16.60;99.90;;;;;;5029776;28;20212;-68
2022/08/17 07:04:41;;;;;;;2.97;0.80;;;16.60;99.90;;;;;;5031382;28;20561;-76
2022/08/17 07:10:16;;;;;;;6.15;1.00;;;16.50;99.90;;;;;;4970400;28;20599;-68
2022/08/17 07:12:48;;;;;;;2.58;0.75;;;16.40;99.90;;;;;;4970848;28;20220;-72
2022/08/17 07:15:21;;;;;;;2.47;0.90;;;16.30;99.90;;;;;;5001197;28;20212;-67
2022/08/17 07:17:55;;;;;;;2.03;0.90;;;16.20;99.90;;;;;;5032824;28;20186;-71
2022/08/17 07:20:25;;;;;;;4.47;0.90;;;16.20;99.90;;;;;;5035376;28;20269;-71
2022/08/17 07:23:01;;;;;;;3.50;0.90;;;16.10;99.90;;;;;;5035040;28;20202;-68
2022/08/17 07:25:32;;;;;;;5.20;2.38;;;16.10;99.90;;;;;;5034881;28;20223;-68
2022/08/17 07:28:06;;;;;;;3.92;2.20;;;16.00;99.90;;;;;;5035667;28;20198;-68
2022/08/17 07:30:40;;;;;;;3.38;1.77;;;15.90;99.90;;;;;;5029067;28;20194;-68
2022/08/17 07:33:18;;;;;;;2.90;1.70;;;15.90;99.90;;;;;;5031028;28;20292;-69
2022/08/17 07:35:49;;;;;;;4.57;1.60;;;15.80;99.90;;;;;;5035278;28;20186;-69
2022/08/17 07:38:23;;;;;;;3.35;1.90;;;15.70;99.90;;;;;;5035072;28;20240;-69
2022/08/17 07:41:03;;;;;;;3.58;2.10;;;15.70;99.90;;;;;;5041057;28;20596;-70
2022/08/17 07:43:36;;;;;;;7.97;3.67;;;15.60;99.90;;;;;;5033930;28;20289;-74
2022/08/17 07:49:22;;;;;;;4.40;2.20;;;15.40;99.90;;;;;;5035114;28;20325;-79
2022/08/17 07:52:02;;;;;;;3.53;2.00;;;15.40;99.90;;;;;;5031097;28;20218;-77
2022/08/17 07:54:35;;;;;;;3.95;1.58;;;15.40;99.90;;;;;;5034943;28;20183;-78
2022/08/17 07:57:36;;;;;;;2.88;1.30;;;15.30;99.90;;;;;;5034987;28;20260;-79
2022/08/17 08:00:18;;;;;;;3.20;1.13;;;15.30;99.90;;;;;;5029257;28;20280;-76
2022/08/17 08:03:00;;;;;;;4.30;1.30;;;15.20;99.90;;;;;;5035038;28;20281;-79
2022/08/17 08:05:33;;;;;;;2.30;1.23;;;15.20;99.90;;;;;;5035184;28;20209;-77
2022/08/17 08:08:08;;;;;;;2.55;1.30;;;15.20;99.90;;;;;;5035185;28;20186;-72
2022/08/17 08:10:42;;;;;;;2.20;1.40;;;15.10;99.90;;;;;;5034771;28;20185;-79
2022/08/17 08:13:14;;;;;;;3.00;1.50;;;15.10;99.90;;;;;;5035081;28;20210;-72
2022/08/17 08:15:47;;;;;;;5.85;2.00;;;15.00;99.90;;;;;;5034855;28;20190;-79
2022/08/17 08:18:28;;;;;;;4.18;1.55;;;14.90;99.90;;;;;;5035277;28;20236;-78
2022/08/17 08:21:07;;;;;;;5.30;2.03;;;14.90;99.90;;;;;;5034901;28;20202;-78
2022/08/17 08:23:47;;;;;;;4.32;1.90;;;14.80;99.90;;;;;;5034390;28;20256;-75
2022/08/17 08:26:26;;;;;;;3.13;1.80;;;14.80;99.90;;;;;;5028725;28;20186;-75
2022/08/17 08:29:09;;;;;;;4.68;1.52;;;14.80;99.90;;;;;;5034012;28;20194;-78
2022/08/17 08:31:53;;;;;;;2.30;1.40;;;14.80;99.90;;;;;;5031486;28;20198;-77
2022/08/17 08:34:30;;;;;;;3.13;1.65;;;14.70;99.90;;;;;;5028902;28;20194;-78
2022/08/17 08:37:12;;;;;;;3.42;1.48;;;14.70;99.90;;;;;;5034629;28;20190;-79
2022/08/17 08:39:56;;;;;;;3.28;2.10;;;14.60;99.90;;;;;;5034259;28;20226;-75
2022/08/17 08:42:38;;;;;;;2.53;1.60;;;14.60;99.90;;;;;;5034562;28;20190;-76
2022/08/17 08:45:16;;;;;;;5.20;2.90;;;14.60;99.90;;;;;;5034512;28;20191;-79
2022/08/17 08:48:15;;;;;;;4.43;2.40;;;14.50;99.90;;;;;;5034413;28;20190;-77
2022/08/17 08:50:54;;;;;;;4.93;2.20;;;14.40;99.90;;;;;;5034413;28;20210;-76
2022/08/17 08:53:37;;;;;;;5.57;2.47;;;14.30;99.90;;;;;;5034088;28;20668;-77
2022/08/17 08:56:13;;;;;;;6.28;2.63;;;14.20;99.90;;;;;;5034267;28;20194;-77
2022/08/17 08:58:53;;;;;;;4.57;2.60;;;14.20;99.90;;;;;;5034464;28;20197;-78
2022/08/17 09:01:30;;;;;;;5.20;2.80;;;14.20;99.90;;;;;;5034108;28;20213;-78
2022/08/17 09:04:20;;;;;;;5.15;2.50;;;14.10;99.90;;;;;;5033679;28;20198;-77
2022/08/17 09:07:07;;;;;;;6.97;2.90;;;14.10;99.90;;;;;;5034115;28;20212;-78
2022/08/17 09:09:50;;;;;;;5.63;2.60;;;14.10;99.90;;;;;;5027776;28;20186;-79
2022/08/17 09:12:34;;;;;;;8.35;3.33;;;14.00;99.90;;;;;;5033763;28;20224;-74
2022/08/17 09:15:12;;;;;;;4.05;2.78;;;14.00;99.90;;;;;;5033924;28;20194;-77
2022/08/17 09:17:50;;;;;;;7.00;2.90;;;13.90;99.90;;;;;;5033892;28;20553;-78
2022/08/17 09:20:25;;;;;;;6.57;2.80;;;13.90;99.90;;;;;;5033932;28;20209;-76
2022/08/17 09:23:02;;;;;;;7.03;2.72;;;13.90;99.90;;;;;;5033544;28;20705;-78
2022/08/17 09:25:41;;;;;;;7.40;3.28;;;13.90;99.90;;;;;;5033010;28;20252;-78
2022/08/17 09:28:20;;;;;;;5.97;3.33;;;13.80;99.90;;;;;;5033495;28;20190;-78
2022/08/17 09:30:54;;;;;;;8.05;3.25;;;13.80;99.90;;;;;;5033411;28;20642;-78
2022/08/17 09:33:26;;;;;;;5.30;2.90;;;13.80;99.90;;;;;;5033403;28;20432;-76
2022/08/17 09:36:01;;;;;;;7.75;3.05;;;13.80;99.90;;;;;;5033052;28;20190;-79
2022/08/17 09:38:42;;;;;;;6.80;2.92;;;13.80;99.90;;;;;;5033414;28;20245;-77
2022/08/17 09:41:19;;;;;;;6.43;3.08;;;13.80;99.90;;;;;;5033181;28;20711;-74
2022/08/17 09:43:56;;;;;;;6.63;2.78;;;13.80;99.90;;;;;;5027189;28;20194;-76
2022/08/17 09:46:30;;;;;;;8.60;3.13;;;13.80;99.90;;;;;;5033466;28;20196;-78
2022/08/17 09:49:10;;;;;;;6.95;2.75;;;13.70;99.90;;;;;;5033308;28;20196;-75
2022/08/17 09:51:44;;;;;;;6.82;3.08;;;13.70;99.90;;;;;;5024903;28;20186;-78
2022/08/17 09:54:28;;;;;;;4.88;2.75;;;13.70;99.90;;;;;;5033250;28;20198;-77
2022/08/17 09:57:11;;;;;;;7.00;2.67;;;13.60;99.90;;;;;;5027424;28;20193;-77
2022/08/17 09:59:54;;;;;;;8.85;2.85;;;13.60;99.90;;;;;;5032911;28;20190;-75
2022/08/17 10:02:52;;;;;;;8.38;3.05;;;13.50;99.90;;;;;;5027841;28;20225;-72
2022/08/17 10:05:29;;;;;;;7.13;3.08;;;13.50;99.90;;;;;;5032520;28;20577;-78
2022/08/17 10:08:08;;;;;;;8.30;3.08;;;13.40;99.90;;;;;;5026888;28;20197;-79
2022/08/17 10:10:46;;;;;;;10.07;3.85;;;13.40;99.90;;;;;;5032686;28;20195;-79
2022/08/17 10:13:27;;;;;;;11.90;4.47;;;13.40;99.90;;;;;;5032573;28;20213;-79
2022/08/17 10:16:06;;;;;;;12.05;4.40;;;13.40;99.90;;;;;;5032836;28;20182;-79
2022/08/17 10:18:45;;;;;;;8.65;4.50;;;13.30;99.90;;;;;;5032555;28;20186;-78
2022/08/17 10:27:00;;;;;;;9.10;3.85;;;13.30;99.90;;;;;;5029429;28;20217;-79
2022/08/17 10:29:36;;;;;;;10.13;3.90;;;13.30;99.90;;;;;;5035205;28;20560;-77
2022/08/17 10:32:11;;;;;;;8.07;3.78;;;13.20;99.90;;;;;;5031942;28;20198;-79
2022/08/17 10:35:10;;;;;;;7.97;3.35;;;13.20;99.90;;;;;;5031046;28;20189;-80
2022/08/17 10:38:18;;;;;;;7.22;3.38;;;13.20;99.90;;;;;;5031019;28;20204;-79
2022/08/17 10:40:54;;;;;;;9.70;3.70;;;13.20;99.90;;;;;;5027854;28;20275;-78
2022/08/17 10:43:45;;;;;;;9.35;3.45;;;13.10;99.90;;;;;;5034370;28;20194;-80
2022/08/17 10:46:25;;;;;;;10.52;3.85;;;13.10;99.90;;;;;;5029217;28;20198;-68
2022/08/17 10:49:25;;;;;;;9.05;3.92;;;13.00;99.90;;;;;;5030756;28;20198;-79
2022/08/17 10:51:57;;;;;;;12.35;4.55;;;13.00;99.90;;;;;;5027921;28;20586;-79
2022/08/17 10:54:48;;;;;;;10.55;4.40;;;13.00;99.90;;;;;;5027386;28;20260;-80
2022/08/17 10:57:38;;;;;;;8.38;4.20;;;12.90;99.90;;;;;;5024930;28;20216;-78
2022/08/17 11:00:34;;;;;;;9.75;4.38;;;12.90;99.90;;;;;;5030840;28;20684;-78
2022/08/17 11:03:20;;;;;;;10.43;4.30;;;12.80;99.90;;;;;;5027535;28;20213;-78
2022/08/17 11:06:02;;;;;;;11.82;4.50;;;12.80;99.90;;;;;;5030888;28;20197;-78
2022/08/17 11:08:59;;;;;;;10.80;4.45;;;12.80;99.90;;;;;;5029649;28;20198;-67
2022/08/17 11:11:49;;;;;;;11.48;4.47;;;12.80;99.90;;;;;;5030047;28;20190;-68
2022/08/17 11:14:34;;;;;;;8.02;4.32;;;12.80;99.90;;;;;;5025179;28;20697;-68
2022/08/17 11:17:26;;;;;;;11.60;4.43;;;12.80;99.90;;;;;;5032755;28;20202;-73
2022/08/17 11:20:29;;;;;;;9.02;4.30;;;12.70;99.90;;;;;;5025689;28;20209;-68
2022/08/17 11:23:25;;;;;;;10.48;4.53;;;12.70;99.90;;;;;;5028735;28;20567;-69
2022/08/17 11:26:02;;;;;;;9.75;4.40;;;12.70;99.90;;;;;;5029841;28;20200;-69
2022/08/17 11:28:35;;;;;;;8.88;4.57;;;12.70;99.90;;;;;;5031528;28;20748;-67
2022/08/17 11:31:24;;;;;;;8.55;4.30;;;12.70;99.90;;;;;;5037841;28;20665;-70
2022/08/17 11:34:07;;;;;;;12.55;4.88;;;12.70;99.90;;;;;;5027118;28;20228;-69
2022/08/17 11:37:05;;;;;;;14.32;5.68;;;12.60;99.90;;;;;;5030880;28;20565;-74
2022/08/17 11:40:13;;;;;;;11.20;5.70;;;12.70;99.90;;;;;;5028179;28;20273;-72
2022/08/17 11:42:58;;;;;;;12.60;6.07;;;12.60;99.90;;;;;;5032412;28;20212;-74
2022/08/17 11:45:57;;;;;;;14.38;6.35;;;12.70;99.90;;;;;;5027601;28;20198;-78
2022/08/17 11:51:35;;;;;;;10.32;5.50;;;12.70;99.90;;;;;;5028265;28;20725;-68
2022/08/17 11:54:13;;;;;;;12.60;5.60;;;12.60;99.90;;;;;;5024718;28;20228;-69
2022/08/17 11:56:47;;;;;;;11.65;5.55;;;12.60;99.90;;;;;;5029329;28;20268;-71
2022/08/17 11:59:53;;;;;;;11.43;5.40;;;12.60;99.90;;;;;;5029802;28;20194;-69
2022/08/17 12:02:51;;;;;;;14.48;5.90;;;12.50;99.90;;;;;;5030349;28;20580;-68
2022/08/17 12:05:39;;;;;;;12.38;5.80;;;12.50;99.90;;;;;;5028998;28;20190;-68
2022/08/17 12:08:17;;;;;;;11.95;5.43;;;12.40;99.90;;;;;;5033264;28;20216;-67
2022/08/17 12:11:09;;;;;;;13.82;5.85;;;12.40;99.90;;;;;;5031139;28;20234;-68
2022/08/17 12:13:46;;;;;;;13.15;5.93;;;12.40;99.90;;;;;;5032972;28;20217;-78
2022/08/17 12:16:19;;;;;;;10.27;5.40;;;12.30;99.90;;;;;;5033756;28;20202;-72
2022/08/17 12:18:56;;;;;;;12.48;5.65;;;12.30;99.90;;;;;;5026851;28;20194;-76
2022/08/17 12:21:42;;;;;;;14.18;5.90;;;12.20;99.90;;;;;;5027580;28;20625;-74
2022/08/17 12:24:28;;;;;;;13.75;6.10;;;12.20;99.90;;;;;;5027026;28;20222;-68
2022/08/17 12:27:03;;;;;;;12.32;6.10;;;12.20;99.90;;;;;;5031834;28;20248;-79
2022/08/17 12:29:36;;;;;;;12.95;5.80;;;12.10;99.90;;;;;;5032236;28;20587;-73
2022/08/17 12:32:08;;;;;;;12.80;5.60;;;12.10;99.90;;;;;;5032691;28;20704;-73
2022/08/17 12:34:42;;;;;;;11.40;6.20;;;12.10;99.90;;;;;;5034201;28;20214;-73
2022/08/17 12:37:18;;;;;;;15.38;5.90;;;12.00;99.90;;;;;;5029947;28;20563;-73
2022/08/17 12:39:58;;;;;;;11.70;6.43;;;12.00;99.90;;;;;;5032777;28;20618;-71
2022/08/17 12:42:36;;;;;;;15.63;5.80;;;12.00;99.90;;;;;;5027654;28;20209;-72
2022/08/17 12:45:07;;;;;;;10.38;6.18;;;12.00;99.90;;;;;;5026976;28;20202;-70
2022/08/17 12:47:39;;;;;;;11.05;6.40;;;11.90;99.90;;;;;;5030532;28;20207;-74
2022/08/17 12:50:14;;;;;;;11.27;6.00;;;11.90;99.90;;;;;;5030874;28;20205;-68
2022/08/17 12:52:49;;;;;;;14.32;5.88;;;11.90;99.90;;;;;;5033284;28;20210;-75
2022/08/17 12:55:24;;;;;;;11.77;6.20;;;11.80;99.90;;;;;;5036652;28;20197;-76
2022/08/17 12:57:58;;;;;;;16.55;6.15;;;11.90;99.90;;;;;;5037512;28;20288;-68
2022/08/17 13:00:30;;;;;;;12.82;6.00;;;11.80;99.90;;;;;;5033293;28;20210;-71
2022/08/17 13:03:04;;;;;;;13.23;6.13;;;11.80;99.90;;;;;;5028682;28;20194;-74
2022/08/17 13:05:37;;;;;;;10.93;5.65;;;11.80;99.90;;;;;;5028735;28;20226;-70
2022/08/17 13:08:17;;;;;;;10.18;5.43;;;11.90;99.90;;;;;;5036545;28;20190;-76
2022/08/17 13:10:57;;;;;;;8.35;5.00;;;11.90;99.90;;;;;;5027327;28;20194;-77
2022/08/17 13:13:32;;;;;;;8.57;5.10;;;11.90;99.90;;;;;;5030882;28;20206;-72
2022/08/17 13:16:05;;;;;;;13.73;6.45;;;11.80;99.90;;;;;;5035642;28;20215;-71
2022/08/17 13:18:42;;;;;;;9.80;5.15;;;11.90;99.90;;;;;;5031992;28;20244;-74
2022/08/17 13:21:25;;;;;;;10.05;4.63;;;11.90;99.90;;;;;;5025579;28;20198;-71
2022/08/17 13:24:04;;;;;;;9.23;4.75;;;11.90;99.90;;;;;;5030487;28;20222;-70
2022/08/17 13:26:36;;;;;;;9.00;4.85;;;11.90;99.90;;;;;;5034551;28;20206;-75
2022/08/17 13:29:22;;;;;;;11.13;4.60;;;11.90;99.90;;;;;;5035435;28;20201;-78
2022/08/17 13:31:57;;;;;;;13.70;5.57;;;11.80;99.90;;;;;;5031007;28;20676;-79
2022/08/17 13:34:41;;;;;;;9.20;5.22;;;11.80;99.90;;;;;;5032164;28;20263;-76
2022/08/17 13:37:28;;;;;;;7.88;4.13;;;11.80;99.90;;;;;;5029364;28;20341;-69
2022/08/17 13:40:01;;;;;;;6.40;3.80;;;11.70;99.90;;;;;;5025902;28;20230;-79
2022/08/17 13:42:45;;;;;;;6.75;4.00;;;11.70;99.90;;;;;;5025350;28;20206;-74
2022/08/17 13:45:39;;;;;;;8.50;3.97;;;11.70;99.90;;;;;;5031225;28;20202;-75
2022/08/17 13:48:13;;;;;;;9.23;3.88;;;11.70;99.90;;;;;;5035587;28;20193;-72
2022/08/17 13:50:46;;;;;;;11.93;5.15;;;11.60;99.90;;;;;;5030190;28;20207;-77
2022/08/17 13:53:24;;;;;;;15.77;7.63;;;11.60;99.90;;;;;;5029828;28;20222;-69
2022/08/17 13:55:58;;;;;;;20.23;9.65;;;11.60;99.90;;;;;;5028663;28;20198;-74
2022/08/17 13:58:30;;;;;;;15.85;6.40;;;11.60;99.90;;;;;;5030027;28;20183;-77
2022/08/17 14:01:33;;;;;;;11.63;5.78;;;11.60;99.90;;;;;;5024920;28;20197;-76
2022/08/17 14:04:06;;;;;;;9.55;4.80;;;11.50;99.90;;;;;;5027258;28;20677;-76